Time;durP1;ratioP1;P1;durP2;ratioP2;P2;SDS_P1;SDS_P2;PMS_P1;PMS_P2;Temp;Humidity;BMP_temperature;BMP_pressure;BME280_temperature;BME280_humidity;BME280_pressure;Samples;Min_cycle;Max_cycle;Signal;HPM_P1;HPM_P2
2022/10/09 00:01:00;;;;;;;9.95;3.55;;;;;;;-141.23;100.00;62281.09;5047498;28;20043;-77
2022/10/09 00:03:26;;;;;;;15.30;3.95;;;;;;;-141.23;100.00;62281.09;5098029;28;20457;-77
2022/10/09 00:05:51;;;;;;;10.23;3.40;;;;;;;-141.23;100.00;62281.09;5047089;28;20168;-76
2022/10/09 00:08:17;;;;;;;8.55;3.10;;;;;;;-141.23;100.00;62281.09;5064113;28;20035;-76
2022/10/09 00:10:43;;;;;;;8.90;3.83;;;;;;;-141.23;100.00;62281.09;5064196;28;20142;-76
2022/10/09 00:13:10;;;;;;;12.15;3.78;;;;;;;-141.23;100.00;62281.09;5080450;28;20043;-76
2022/10/09 00:15:40;;;;;;;10.02;3.78;;;;;;;-141.23;100.00;62281.09;5079780;28;20039;-77
2022/10/09 00:18:08;;;;;;;10.13;4.20;;;;;;;-141.23;100.00;62281.09;5079765;28;20039;-75
2022/10/09 00:20:38;;;;;;;17.00;4.78;;;;;;;-141.23;100.00;62281.09;5065758;28;20043;-75
2022/10/09 00:23:04;;;;;;;14.20;5.03;;;;;;;-141.23;100.00;62281.09;5100236;28;20055;-75
2022/10/09 00:25:30;;;;;;;13.18;5.05;;;;;;;-141.23;100.00;62281.09;5098749;28;20286;-76
2022/10/09 00:27:57;;;;;;;12.15;4.80;;;;;;;-141.23;100.00;62281.09;5065161;28;20051;-75
2022/10/09 00:30:22;;;;;;;10.57;5.13;;;;;;;-141.23;100.00;62281.09;5096833;28;20058;-77
2022/10/09 00:32:48;;;;;;;13.98;5.15;;;;;;;-141.23;100.00;62281.09;5046114;28;20465;-75
2022/10/09 00:35:14;;;;;;;10.48;5.22;;;;;;;-141.23;100.00;62281.09;5061711;28;20050;-76
2022/10/09 00:37:40;;;;;;;20.35;6.70;;;;;;;-141.23;100.00;62281.09;5061868;28;20050;-77
2022/10/09 00:40:06;;;;;;;12.50;5.25;;;;;;;-141.23;100.00;62281.09;5062058;28;20418;-77
2022/10/09 00:42:32;;;;;;;10.50;4.28;;;;;;;-141.23;100.00;62281.09;5046122;28;20469;-77
2022/10/09 00:44:59;;;;;;;12.20;5.03;;;;;;;-141.23;100.00;62281.09;5062279;28;20101;-76
2022/10/09 00:47:39;;;;;;;12.07;4.80;;;;;;;-141.23;100.00;62281.09;5078060;28;20039;-77
2022/10/09 00:50:19;;;;;;;8.70;4.40;;;;;;;-141.23;100.00;62281.09;5078210;28;20047;-76
2022/10/09 00:52:46;;;;;;;10.20;4.07;;;;;;;-141.23;100.00;62281.09;5062672;28;20079;-78
2022/10/09 00:55:13;;;;;;;8.32;4.00;;;;;;;-141.23;100.00;62281.09;5063459;28;20811;-78
2022/10/09 00:57:39;;;;;;;9.63;3.97;;;;;;;-141.23;100.00;62281.09;5063951;28;20101;-78
2022/10/09 01:00:08;;;;;;;17.08;4.80;;;;;;;-141.23;100.00;62281.09;5079843;28;20050;-77
2022/10/09 01:02:34;;;;;;;9.73;3.85;;;;;;;-141.23;100.00;62281.09;5096758;28;20366;-77
2022/10/09 01:04:59;;;;;;;12.48;3.72;;;;;;;-141.23;100.00;62281.09;5061922;28;20046;-77
2022/10/09 01:07:50;;;;;;;11.50;3.53;;;;;;;-141.23;100.00;62281.09;5062468;28;20035;-77
2022/10/09 01:10:18;;;;;;;13.18;3.45;;;;;;;-141.23;100.00;62281.09;5078617;28;20428;-77
2022/10/09 01:13:02;;;;;;;15.25;3.42;;;;;;;-141.23;100.00;62281.09;5095382;28;20473;-77
2022/10/09 01:15:43;;;;;;;9.35;3.88;;;;;;;-141.23;100.00;62281.09;5095969;28;20442;-78
2022/10/09 01:18:28;;;;;;;8.98;4.13;;;;;;;-141.23;100.00;62281.09;5096400;28;20062;-76
2022/10/09 01:20:59;;;;;;;13.85;4.03;;;;;;;-141.23;100.00;62281.09;5078931;28;20058;-77
2022/10/09 01:23:31;;;;;;;8.60;3.08;;;;;;;-141.23;100.00;62281.09;5079255;28;20426;-77
2022/10/09 01:26:02;;;;;;;10.68;3.50;;;;;;;-141.23;100.00;62281.09;5063635;28;20100;-76
2022/10/09 01:28:29;;;;;;;9.85;3.50;;;;;;;-141.23;100.00;62281.09;5063481;28;20031;-76
2022/10/09 01:31:01;;;;;;;9.93;3.40;;;;;;;-141.23;100.00;62281.09;5063869;28;20104;-77
2022/10/09 01:33:28;;;;;;;7.85;3.20;;;;;;;-141.23;100.00;62281.09;5062714;28;20070;-76
2022/10/09 01:35:54;;;;;;;10.27;3.30;;;;;;;-141.23;100.00;62281.09;5064279;28;20043;-76
2022/10/09 01:38:23;;;;;;;11.43;3.67;;;;;;;-141.23;100.00;62281.09;5063102;28;20057;-76
2022/10/09 01:40:50;;;;;;;9.38;3.60;;;;;;;-141.23;100.00;62281.09;5080937;28;20043;-77
2022/10/09 01:43:16;;;;;;;11.63;3.78;;;;;;;-141.23;100.00;62281.09;5063886;28;20039;-77
2022/10/09 01:45:44;;;;;;;10.38;3.30;;;;;;;-141.23;100.00;62281.09;5046684;28;20454;-75
2022/10/09 01:48:16;;;;;;;10.38;3.45;;;;;;;-141.23;100.00;62281.09;5061438;28;20143;-75
2022/10/09 01:50:45;;;;;;;12.35;3.50;;;;;;;-141.23;100.00;62281.09;5045515;28;20473;-77
2022/10/09 01:53:16;;;;;;;7.22;3.50;;;;;;;-141.23;100.00;62281.09;5079122;28;20111;-77
2022/10/09 01:55:50;;;;;;;14.00;3.88;;;;;;;-141.23;100.00;62281.09;5045626;28;20044;-77
2022/10/09 01:58:35;;;;;;;6.43;3.45;;;;;;;-141.23;100.00;62281.09;5062073;28;20046;-77
2022/10/09 02:01:07;;;;;;;12.63;3.58;;;;;;;-141.23;100.00;62281.09;5062205;28;20127;-76
2022/10/09 02:03:34;;;;;;;7.35;3.53;;;;;;;-141.23;100.00;62281.09;5078538;28;20481;-75
2022/10/09 02:06:01;;;;;;;8.57;3.50;;;;;;;-141.23;100.00;62281.09;5078385;28;20043;-76
2022/10/09 02:08:27;;;;;;;13.00;4.28;;;;;;;-141.23;100.00;62281.09;5095649;28;20498;-78
2022/10/09 02:10:55;;;;;;;8.95;3.33;;;;;;;-141.23;100.00;62281.09;5062491;28;20057;-78
2022/10/09 02:13:21;;;;;;;8.82;4.40;;;;;;;-141.23;100.00;62281.09;5079716;28;20072;-78
2022/10/09 02:16:02;;;;;;;18.65;4.13;;;;;;;-141.23;100.00;62281.09;5079439;28;20043;-77
2022/10/09 02:18:30;;;;;;;;;;;;;;;-141.23;100.00;62281.09;5083093;28;20465;-76
2022/10/09 02:20:59;;;;;;;12.80;4.28;;;;;;;-141.23;100.00;62281.09;5065645;28;19980;-76
2022/10/09 02:23:27;;;;;;;9.75;3.50;;;;;;;-141.23;100.00;62281.09;5065318;28;20043;-75
2022/10/09 02:25:53;;;;;;;13.85;4.00;;;;;;;-141.23;100.00;62281.09;5081146;28;20042;-76
2022/10/09 02:28:20;;;;;;;14.90;4.90;;;;;;;-141.23;100.00;62281.09;5063577;28;20068;-76
2022/10/09 02:30:55;;;;;;;14.13;4.22;;;;;;;-141.23;100.00;62281.09;5080290;28;20427;-75
2022/10/09 02:33:32;;;;;;;18.95;4.22;;;;;;;-141.23;100.00;62281.09;5046250;28;20047;-76
2022/10/09 02:35:57;;;;;;;19.17;4.00;;;;;;;-141.23;100.00;62281.09;5062980;28;20039;-76
2022/10/09 02:38:23;;;;;;;13.85;4.22;;;;;;;-141.23;100.00;62281.09;5062747;28;20484;-76
2022/10/09 02:40:49;;;;;;;10.90;3.70;;;;;;;-141.23;100.00;62281.09;5063511;28;20039;-78
2022/10/09 02:43:15;;;;;;;13.85;4.30;;;;;;;-141.23;100.00;62281.09;5082318;28;20040;-75
2022/10/09 02:45:41;;;;;;;8.43;3.92;;;;;;;-141.23;100.00;62281.09;5065222;28;20054;-75
2022/10/09 02:48:07;;;;;;;11.20;3.80;;;;;;;-141.23;100.00;62281.09;5081628;28;20056;-76
2022/10/09 02:50:34;;;;;;;13.20;4.50;;;;;;;-141.23;100.00;62281.09;5064476;28;20461;-76
2022/10/09 02:53:00;;;;;;;12.65;3.78;;;;;;;-141.23;100.00;62281.09;5081367;28;20051;-77
2022/10/09 02:55:26;;;;;;;14.80;4.05;;;;;;;-141.23;100.00;62281.09;5081416;28;20504;-76
2022/10/09 02:57:51;;;;;;;11.30;4.38;;;;;;;-141.23;100.00;62281.09;5082404;28;20036;-76
2022/10/09 03:00:17;;;;;;;16.80;4.50;;;;;;;-141.23;100.00;62281.09;5082641;28;20054;-75
2022/10/09 03:02:43;;;;;;;13.57;4.82;;;;;;;-141.23;100.00;62281.09;5065592;28;20417;-77
2022/10/09 03:05:09;;;;;;;11.90;4.80;;;;;;;-141.23;100.00;62281.09;5065572;28;20096;-76
2022/10/09 03:07:35;;;;;;;14.38;4.22;;;;;;;-141.23;100.00;62281.09;5064504;28;20118;-77
2022/10/09 03:10:01;;;;;;;10.32;4.53;;;;;;;-141.23;100.00;62281.09;5064118;28;20209;-77
2022/10/09 03:12:26;;;;;;;11.48;4.35;;;;;;;-141.23;100.00;62281.09;5098062;28;20051;-75
2022/10/09 03:14:52;;;;;;;18.92;5.25;;;;;;;-141.23;100.00;62281.09;5081074;28;20040;-74
2022/10/09 03:17:18;;;;;;;14.25;5.03;;;;;;;-141.23;100.00;62281.09;5081636;28;20039;-75
2022/10/09 03:19:43;;;;;;;14.27;4.97;;;;;;;-141.23;100.00;62281.09;5081320;28;20042;-75
2022/10/09 03:22:10;;;;;;;16.63;4.80;;;;;;;-141.23;100.00;62281.09;5081544;28;20068;-77
2022/10/09 03:24:36;;;;;;;16.55;4.78;;;;;;;-141.23;100.00;62281.09;5098080;28;20482;-77
2022/10/09 03:27:02;;;;;;;9.93;4.53;;;;;;;-141.23;100.00;62281.09;5080215;28;20077;-77
2022/10/09 03:29:27;;;;;;;8.35;4.05;;;;;;;-141.23;100.00;62281.09;5064026;28;20037;-80
2022/10/09 03:31:53;;;;;;;12.38;4.30;;;;;;;-141.23;100.00;62281.09;5063956;28;20104;-78
2022/10/09 03:34:20;;;;;;;11.90;3.67;;;;;;;-141.23;100.00;62281.09;5065431;28;20039;-78
2022/10/09 03:36:45;;;;;;;15.30;3.72;;;;;;;-141.23;100.00;62281.09;5097961;28;20128;-76
2022/10/09 03:39:12;;;;;;;13.57;4.13;;;;;;;-141.23;100.00;62281.09;5081820;28;20610;-75
2022/10/09 03:41:37;;;;;;;14.50;3.22;;;;;;;-141.23;100.00;62281.09;5082004;28;20045;-75
2022/10/09 03:44:03;;;;;;;7.55;3.45;;;;;;;-141.23;100.00;62281.09;5065305;28;20097;-74
2022/10/09 03:46:29;;;;;;;9.30;3.75;;;;;;;-141.23;100.00;62281.09;5082379;28;20070;-74
2022/10/09 03:48:55;;;;;;;9.65;3.30;;;;;;;-141.23;100.00;62281.09;5082489;28;20040;-74
2022/10/09 03:51:23;;;;;;;14.40;3.88;;;;;;;-141.23;100.00;62281.09;5083936;28;20126;-77
2022/10/09 03:53:51;;;;;;;7.82;3.28;;;;;;;-141.23;100.00;62281.09;5116018;28;20134;-80
2022/10/09 03:56:17;;;;;;;8.75;3.40;;;;;;;-141.23;100.00;62281.09;5096898;28;20127;-78
2022/10/09 03:58:43;;;;;;;14.43;3.92;;;;;;;-141.23;100.00;62281.09;5064031;28;20051;-77
2022/10/09 04:01:09;;;;;;;8.88;3.22;;;;;;;-141.23;100.00;62281.09;5064585;28;20040;-77
2022/10/09 04:03:35;;;;;;;15.63;3.25;;;;;;;-141.23;100.00;62281.09;5080364;28;20042;-78
2022/10/09 04:06:02;;;;;;;10.13;3.60;;;;;;;-141.23;100.00;62281.09;5062900;28;20465;-77
2022/10/09 04:08:28;;;;;;;7.95;3.58;;;;;;;-141.23;100.00;62281.09;5063056;28;20129;-77
2022/10/09 04:11:00;;;;;;;10.65;3.45;;;;;;;-141.23;100.00;62281.09;5063224;28;20055;-76
2022/10/09 04:13:26;;;;;;;7.25;3.83;;;;;;;-141.23;100.00;62281.09;5079692;28;20454;-77
2022/10/09 04:15:52;;;;;;;11.00;3.63;;;;;;;-141.23;100.00;62281.09;5114969;28;20364;-77
2022/10/09 04:18:18;;;;;;;8.48;3.55;;;;;;;-141.23;100.00;62281.09;5114646;28;20116;-76
2022/10/09 04:20:52;;;;;;;12.18;3.92;;;;;;;-141.23;100.00;62281.09;5062898;28;20879;-77
2022/10/09 04:23:20;;;;;;;8.20;3.58;;;;;;;-141.23;100.00;62281.09;5079457;28;20437;-77
2022/10/09 04:25:45;;;;;;;9.18;3.70;;;;;;;-141.23;100.00;62281.09;5114068;28;20469;-78
2022/10/09 04:28:11;;;;;;;13.90;3.60;;;;;;;-141.23;100.00;62281.09;5062863;28;20042;-75
2022/10/09 04:30:37;;;;;;;13.63;4.03;;;;;;;-141.23;100.00;62281.09;5062815;28;20050;-75
2022/10/09 04:33:03;;;;;;;10.40;3.67;;;;;;;-141.23;100.00;62281.09;5064095;28;20039;-75
2022/10/09 04:35:28;;;;;;;12.77;3.55;;;;;;;-141.23;100.00;62281.09;5082141;28;20040;-75
2022/10/09 04:37:54;;;;;;;7.38;3.45;;;;;;;-141.23;100.00;62281.09;5065250;28;20042;-76
2022/10/09 04:40:20;;;;;;;7.75;3.42;;;;;;;-141.23;100.00;62281.09;5080550;28;20051;-77
2022/10/09 04:42:46;;;;;;;12.30;3.33;;;;;;;-141.23;100.00;62281.09;5064817;28;20054;-76
2022/10/09 04:45:12;;;;;;;9.23;3.40;;;;;;;-141.23;100.00;62281.09;5098359;28;20478;-77
2022/10/09 04:47:37;;;;;;;12.13;3.50;;;;;;;-141.23;100.00;62281.09;5082577;28;20036;-77
2022/10/09 04:50:03;;;;;;;10.82;3.15;;;;;;;-141.23;100.00;62281.09;5064959;28;20035;-73
2022/10/09 04:52:29;;;;;;;12.00;3.80;;;;;;;-141.23;100.00;62281.09;5096201;28;20043;-75
2022/10/09 04:54:55;;;;;;;9.23;3.67;;;;;;;-141.23;100.00;62281.09;5062941;28;20239;-73
2022/10/09 04:57:21;;;;;;;10.40;3.58;;;;;;;-141.23;100.00;62281.09;5062267;28;20043;-75
2022/10/09 04:59:47;;;;;;;7.85;3.13;;;;;;;-141.23;100.00;62281.09;5078859;28;20039;-78
2022/10/09 05:02:13;;;;;;;10.75;3.55;;;;;;;-141.23;100.00;62281.09;5028932;28;20541;-73
2022/10/09 05:04:39;;;;;;;11.05;3.63;;;;;;;-141.23;100.00;62281.09;5095364;28;20114;-72
2022/10/09 05:07:06;;;;;;;6.60;3.15;;;;;;;-141.23;100.00;62281.09;5062315;28;20050;-72
2022/10/09 05:09:31;;;;;;;10.88;3.25;;;;;;;-141.23;100.00;62281.09;5061846;28;20040;-73
2022/10/09 05:11:57;;;;;;;6.68;3.20;;;;;;;-141.23;100.00;62281.09;5062396;28;20047;-71
2022/10/09 05:14:23;;;;;;;9.23;3.30;;;;;;;-141.23;100.00;62281.09;5078502;28;20380;-71
2022/10/09 05:16:53;;;;;;;6.18;3.42;;;;;;;-141.23;100.00;62281.09;5096463;28;20429;-71
2022/10/09 05:19:18;;;;;;;7.47;2.80;;;;;;;-141.23;100.00;62281.09;5079199;28;20504;-73
2022/10/09 05:21:44;;;;;;;11.15;3.38;;;;;;;-141.23;100.00;62281.09;5078512;28;20316;-71
2022/10/09 05:24:10;;;;;;;8.63;3.20;;;;;;;-141.23;100.00;62281.09;5077925;28;20060;-72
2022/10/09 05:26:36;;;;;;;6.93;3.38;;;;;;;-141.23;100.00;62281.09;5078275;28;20063;-72
2022/10/09 05:29:02;;;;;;;9.48;2.97;;;;;;;-141.23;100.00;62281.09;5061631;28;20138;-72
2022/10/09 05:31:29;;;;;;;6.30;3.00;;;;;;;-141.23;100.00;62281.09;5095438;28;20438;-72
2022/10/09 05:33:57;;;;;;;8.65;2.85;;;;;;;-141.23;100.00;62281.09;5061533;28;20085;-72
2022/10/09 05:36:22;;;;;;;7.88;3.40;;;;;;;-141.23;100.00;62281.09;5078123;28;20063;-72
2022/10/09 05:38:48;;;;;;;9.68;3.53;;;;;;;-141.23;100.00;62281.09;5061490;28;20540;-73
2022/10/09 05:41:16;;;;;;;7.90;3.03;;;;;;;-141.23;100.00;62281.09;5060854;28;20482;-72
2022/10/09 05:43:45;;;;;;;9.05;3.60;;;;;;;-141.23;100.00;62281.09;5080525;28;20044;-74
2022/10/09 05:46:14;;;;;;;12.05;3.55;;;;;;;-141.23;100.00;62281.09;5077897;28;20485;-73
2022/10/09 05:48:41;;;;;;;8.35;2.85;;;;;;;-141.23;100.00;62281.09;5094607;28;20137;-75
2022/10/09 05:51:08;;;;;;;8.68;3.40;;;;;;;-141.23;100.00;62281.09;5043926;28;20420;-74
2022/10/09 05:53:34;;;;;;;8.75;3.20;;;;;;;-141.23;100.00;62281.09;5077112;28;20364;-74
2022/10/09 05:56:23;;;;;;;12.40;3.05;;;;;;;-141.23;100.00;62281.09;5077133;28;20044;-75
2022/10/09 05:58:50;;;;;;;8.30;2.90;;;;;;;-141.23;100.00;62281.09;5077507;28;20043;-73
2022/10/09 06:01:18;;;;;;;6.45;2.75;;;;;;;-141.23;100.00;62281.09;5112521;28;20088;-74
2022/10/09 06:03:48;;;;;;;9.23;2.95;;;;;;;-141.23;100.00;62281.09;5060927;28;20101;-75
2022/10/09 06:06:14;;;;;;;11.90;3.10;;;;;;;-141.23;100.00;62281.09;5094676;28;20057;-70
2022/10/09 06:08:40;;;;;;;7.88;2.88;;;;;;;-141.23;100.00;62281.09;5060880;28;20104;-71
2022/10/09 06:11:10;;;;;;;8.10;2.95;;;;;;;-141.23;100.00;62281.09;5078243;28;20047;-70
2022/10/09 06:13:36;;;;;;;10.48;2.70;;;;;;;-141.23;100.00;62281.09;5078691;28;20426;-74
2022/10/09 06:16:02;;;;;;;4.38;2.40;;;;;;;-141.23;100.00;62281.09;5061123;28;20062;-72
2022/10/09 06:18:28;;;;;;;5.68;2.88;;;;;;;-141.23;100.00;62281.09;5077821;28;20096;-74
2022/10/09 06:20:54;;;;;;;7.13;2.78;;;;;;;-141.23;100.00;62281.09;5062699;28;20075;-73
2022/10/09 06:23:21;;;;;;;10.63;2.72;;;;;;;-141.23;100.00;62281.09;5063098;28;20051;-73
2022/10/09 06:25:54;;;;;;;5.10;2.50;;;;;;;-141.23;100.00;62281.09;5045420;28;20479;-72
2022/10/09 06:28:20;;;;;;;7.47;2.83;;;;;;;-141.23;100.00;62281.09;5078173;28;20071;-73
2022/10/09 06:30:46;;;;;;;10.52;2.38;;;;;;;-141.23;100.00;62281.09;5079552;28;20528;-73
2022/10/09 06:33:12;;;;;;;4.13;2.40;;;;;;;-141.23;100.00;62281.09;5061982;28;20052;-73
2022/10/09 06:35:38;;;;;;;10.60;2.90;;;;;;;-141.23;100.00;62281.09;5061211;28;20058;-74
2022/10/09 06:38:04;;;;;;;7.15;2.85;;;;;;;-141.23;100.00;62281.09;5060718;28;20044;-71
2022/10/09 06:40:40;;;;;;;10.90;3.00;;;;;;;-141.23;100.00;62281.09;5078168;28;20512;-76
2022/10/09 06:43:06;;;;;;;9.75;2.45;;;;;;;-141.23;100.00;62281.09;5095671;28;20059;-76
2022/10/09 06:45:35;;;;;;;11.73;3.30;;;;;;;-141.23;100.00;62281.09;5045949;28;20039;-76
2022/10/09 06:48:01;;;;;;;7.85;2.90;;;;;;;-141.23;100.00;62281.09;5062865;28;20047;-75
2022/10/09 06:50:27;;;;;;;6.57;2.85;;;;;;;-141.23;100.00;62281.09;5064534;28;20382;-79
2022/10/09 06:52:53;;;;;;;6.65;2.63;;;;;;;-141.23;100.00;62281.09;5050621;28;20039;-78
2022/10/09 06:55:18;;;;;;;11.63;3.22;;;;;;;-141.23;100.00;62281.09;5065729;28;20044;-77
2022/10/09 06:57:46;;;;;;;8.77;3.10;;;;;;;-141.23;100.00;62281.09;5046730;28;20100;-74
2022/10/09 07:00:13;;;;;;;3.78;2.70;;;;;;;-141.23;100.00;62281.09;5095655;28;20097;-74
2022/10/09 07:02:40;;;;;;;12.25;3.05;;;;;;;-141.23;100.00;62281.09;5061130;28;20035;-72
2022/10/09 07:05:06;;;;;;;11.43;3.35;;;;;;;-141.23;100.00;62281.09;5046230;28;20063;-73
2022/10/09 07:07:32;;;;;;;11.35;3.75;;;;;;;-141.23;100.00;62281.09;5046020;28;20084;-72
2022/10/09 07:09:57;;;;;;;9.43;3.10;;;;;;;-141.23;100.00;62281.09;5062524;28;20043;-74
2022/10/09 07:12:23;;;;;;;10.63;3.15;;;;;;;-141.23;100.00;62281.09;5047131;28;20066;-73
2022/10/09 07:14:50;;;;;;;8.25;2.60;;;;;;;-141.23;100.00;62281.09;5047260;28;20377;-74
2022/10/09 07:17:16;;;;;;;8.65;2.63;;;;;;;-141.23;100.00;62281.09;5047642;28;20063;-72
2022/10/09 07:19:42;;;;;;;6.97;2.95;;;;;;;-141.23;100.00;62281.09;5047406;28;20116;-75
2022/10/09 07:22:10;;;;;;;5.45;2.58;;;;;;;-141.23;100.00;62281.09;5064181;28;20047;-75
2022/10/09 07:24:36;;;;;;;9.02;3.00;;;;;;;-141.23;100.00;62281.09;5047623;28;20055;-73
2022/10/09 07:27:02;;;;;;;6.07;2.70;;;;;;;-141.23;100.00;62281.09;5047219;28;20053;-75
2022/10/09 07:29:27;;;;;;;7.40;3.28;;;;;;;-141.23;100.00;62281.09;5047562;28;20043;-75
2022/10/09 07:31:53;;;;;;;8.73;3.00;;;;;;;-141.23;100.00;62281.09;5047035;28;20057;-75
2022/10/09 07:34:20;;;;;;;6.00;2.95;;;;;;;-141.23;100.00;62281.09;5063754;28;20057;-76
2022/10/09 07:36:45;;;;;;;10.23;3.22;;;;;;;-141.23;100.00;62281.09;5064083;28;20044;-77
2022/10/09 07:39:11;;;;;;;7.25;2.90;;;;;;;-141.23;100.00;62281.09;5063651;28;20465;-76
2022/10/09 07:41:37;;;;;;;5.95;2.80;;;;;;;-141.23;100.00;62281.09;5051307;28;20032;-76
2022/10/09 07:44:03;;;;;;;5.57;2.90;;;;;;;-141.23;100.00;62281.09;5045925;28;20043;-74
2022/10/09 07:46:29;;;;;;;4.90;2.72;;;;;;;-141.23;100.00;62281.09;5046349;28;20105;-74
2022/10/09 07:48:55;;;;;;;4.88;2.78;;;;;;;-141.23;100.00;62281.09;5063645;28;20039;-75
2022/10/09 07:51:26;;;;;;;11.35;2.90;;;;;;;-141.23;100.00;62281.09;5046853;28;20054;-74
2022/10/09 07:53:52;;;;;;;6.22;2.95;;;;;;;-141.23;100.00;62281.09;5080385;28;20096;-74
2022/10/09 07:56:21;;;;;;;8.88;2.70;;;;;;;-141.23;100.00;62281.09;5080590;28;20040;-74
2022/10/09 07:58:57;;;;;;;8.07;2.90;;;;;;;-141.23;100.00;62281.09;5080446;28;20095;-75
2022/10/09 08:01:24;;;;;;;7.90;2.88;;;;;;;-141.23;100.00;62281.09;5071251;28;20051;-73
2022/10/09 08:03:50;;;;;;;6.90;2.70;;;;;;;-141.23;100.00;62281.09;5061884;28;20134;-76
2022/10/09 08:06:17;;;;;;;8.27;2.60;;;;;;;-141.23;100.00;62281.09;5079737;28;20086;-75
2022/10/09 08:08:44;;;;;;;10.18;3.08;;;;;;;-141.23;100.00;62281.09;5079321;28;20039;-75
2022/10/09 08:11:11;;;;;;;7.82;2.92;;;;;;;-141.23;100.00;62281.09;5096015;28;20044;-75
2022/10/09 08:13:38;;;;;;;6.20;2.80;;;;;;;-141.23;100.00;62281.09;5062918;28;20125;-73
2022/10/09 08:16:05;;;;;;;9.80;2.80;;;;;;;-141.23;100.00;62281.09;5062964;28;20039;-73
2022/10/09 08:18:41;;;;;;;7.28;2.95;;;;;;;-141.23;100.00;62281.09;5082314;28;20064;-73
2022/10/09 08:21:10;;;;;;;5.90;2.42;;;;;;;-141.23;100.00;62281.09;5079108;28;20096;-76
2022/10/09 08:23:37;;;;;;;6.13;2.45;;;;;;;-141.23;100.00;62281.09;5095912;28;20092;-76
2022/10/09 08:26:04;;;;;;;11.05;3.03;;;;;;;-141.23;100.00;62281.09;5060035;28;20036;-75
2022/10/09 08:28:30;;;;;;;4.45;2.50;;;;;;;-141.23;100.00;62281.09;5094658;28;20153;-76
2022/10/09 08:30:58;;;;;;;7.05;2.60;;;;;;;-141.23;100.00;62281.09;5060012;28;20055;-76
2022/10/09 08:33:24;;;;;;;6.63;2.55;;;;;;;-141.23;100.00;62281.09;5045027;28;20039;-76
2022/10/09 08:35:51;;;;;;;4.50;2.42;;;;;;;-141.23;100.00;62281.09;5075690;28;20469;-77
2022/10/09 08:38:18;;;;;;;7.72;3.15;;;;;;;-141.23;100.00;62281.09;5061829;28;20409;-78
2022/10/09 08:40:58;;;;;;;9.93;3.30;;;;;;;-141.23;100.00;62281.09;5060045;28;20390;-81
2022/10/09 08:43:31;;;;;;;;;;;;;;;-141.23;100.00;62281.09;5040610;28;20048;-80
2022/10/09 08:46:00;;;;;;;8.27;3.03;;;;;;;-141.23;100.00;62281.09;5049001;28;19919;-77
2022/10/09 08:48:27;;;;;;;7.05;2.70;;;;;;;-141.23;100.00;62281.09;5072852;28;20051;-78
2022/10/09 08:50:56;;;;;;;7.53;2.67;;;;;;;-141.23;100.00;62281.09;5042846;28;20101;-77
2022/10/09 08:53:51;;;;;;;5.15;2.28;;;;;;;-141.23;100.00;62281.09;5056800;28;20071;-78
2022/10/09 08:56:16;;;;;;;8.52;3.03;;;;;;;-141.23;100.00;62281.09;5052700;28;20140;-78
2022/10/09 08:58:44;;;;;;;8.13;2.80;;;;;;;-141.23;100.00;62281.09;5044114;28;20035;-78
2022/10/09 09:01:16;;;;;;;10.10;2.63;;;;;;;-141.23;100.00;62281.09;5062311;28;20035;-77
2022/10/09 09:04:06;;;;;;;6.88;2.80;;;;;;;-141.23;100.00;62281.09;5078126;28;20057;-78
2022/10/09 09:07:02;;;;;;;10.15;3.00;;;;;;;-141.23;100.00;62281.09;5061034;28;20486;-78
2022/10/09 09:09:53;;;;;;;7.85;2.47;;;;;;;-141.23;100.00;62281.09;5059344;28;20043;-76
2022/10/09 09:12:56;;;;;;;6.43;2.85;;;;;;;-141.23;100.00;62281.09;5056378;28;20498;-76
2022/10/09 09:15:37;;;;;;;9.20;3.28;;;;;;;-141.23;100.00;62281.09;5053154;28;20067;-77
2022/10/09 09:18:03;;;;;;;11.02;2.40;;;;;;;-141.23;100.00;62281.09;5092863;28;20047;-77
2022/10/09 09:20:55;;;;;;;7.00;2.80;;;;;;;-141.23;100.00;62281.09;5060354;28;20051;-78
2022/10/09 09:23:28;;;;;;;6.25;2.95;;;;;;;-141.23;100.00;62281.09;5074652;28;20394;-78
2022/10/09 09:25:55;;;;;;;7.22;2.88;;;;;;;-141.23;100.00;62281.09;5059027;28;20043;-74
2022/10/09 09:28:30;;;;;;;9.60;2.28;;;;;;;-141.23;100.00;62281.09;5075517;28;20082;-75
2022/10/09 09:31:00;;;;;;;4.97;2.42;;;;;;;-141.23;100.00;62281.09;5049873;28;20058;-76
2022/10/09 09:33:51;;;;;;;4.18;2.00;;;;;;;-141.23;100.00;62281.09;5060755;28;20039;-78
2022/10/09 09:36:19;;;;;;;5.47;2.63;;;;;;;-141.23;100.00;62281.09;5074517;28;20036;-74
2022/10/09 09:38:45;;;;;;;6.50;2.60;;;;;;;-141.23;100.00;62281.09;5093630;28;20044;-74
2022/10/09 09:41:11;;;;;;;5.93;2.38;;;;;;;-141.23;100.00;62281.09;5059768;28;20065;-75
2022/10/09 09:43:37;;;;;;;9.40;3.08;;;;;;;-141.23;100.00;62281.09;5057607;28;20557;-76
2022/10/09 09:46:11;;;;;;;5.55;2.55;;;;;;;-141.23;100.00;62281.09;5061479;28;20073;-80
2022/10/09 09:48:40;;;;;;;5.13;2.42;;;;;;;-141.23;100.00;62281.09;5045476;28;20419;-72
2022/10/09 09:51:15;;;;;;;15.40;3.30;;;;;;;-141.23;100.00;62281.09;5044972;28;20039;-77
2022/10/09 09:53:49;;;;;;;9.95;3.03;;;;;;;-141.23;100.00;62281.09;5077871;28;20054;-75
2022/10/09 09:56:16;;;;;;;5.32;2.58;;;;;;;-141.23;100.00;62281.09;5044354;28;20408;-77
2022/10/09 09:58:47;;;;;;;6.70;2.20;;;;;;;-141.23;100.00;62281.09;5077809;28;20039;-75
2022/10/09 10:01:23;;;;;;;7.32;2.05;;;;;;;-141.23;100.00;62281.09;5061943;28;20039;-76
2022/10/09 10:03:52;;;;;;;5.18;2.00;;;;;;;-141.23;100.00;62281.09;5062328;28;20050;-77
2022/10/09 10:06:23;;;;;;;6.53;2.20;;;;;;;-141.23;100.00;62281.09;5095538;28;20047;-75
2022/10/09 10:09:12;;;;;;;4.38;2.10;;;;;;;-141.23;100.00;62281.09;5061522;28;20443;-76
2022/10/09 10:11:47;;;;;;;6.90;2.40;;;;;;;-141.23;100.00;62281.09;5095288;28;20044;-76
2022/10/09 10:14:13;;;;;;;3.45;2.28;;;;;;;-141.23;100.00;62281.09;5077828;28;20050;-76
2022/10/09 10:16:39;;;;;;;7.72;2.42;;;;;;;-141.23;100.00;62281.09;5060768;28;20040;-77
2022/10/09 10:19:06;;;;;;;5.55;2.30;;;;;;;-141.23;100.00;62281.09;5044505;28;20497;-77
2022/10/09 10:21:47;;;;;;;4.93;2.33;;;;;;;-141.23;100.00;62281.09;5060849;28;20036;-76
2022/10/09 10:24:20;;;;;;;4.20;2.47;;;;;;;-141.23;100.00;62281.09;5078104;28;20078;-75
2022/10/09 10:26:59;;;;;;;4.90;2.17;;;;;;;-141.23;100.00;62281.09;5060814;28;20043;-75
2022/10/09 10:29:34;;;;;;;5.53;2.38;;;;;;;-141.23;100.00;62281.09;5060253;28;20031;-71
2022/10/09 10:32:05;;;;;;;5.35;2.20;;;;;;;-141.23;100.00;62281.09;5060637;28;20055;-71
2022/10/09 10:34:48;;;;;;;;;;;;;;;-141.23;100.00;62281.09;5044153;28;20165;-73
2022/10/09 10:37:14;;;;;;;5.65;1.73;;;;;;;-141.23;100.00;62281.09;5061043;28;20418;-72
2022/10/09 10:39:46;;;;;;;5.38;2.08;;;;;;;-141.23;100.00;62281.09;5081236;28;20051;-73
2022/10/09 10:42:56;;;;;;;5.95;2.22;;;;;;;-141.23;100.00;62281.09;5080791;28;20143;-72
2022/10/09 10:45:28;;;;;;;4.55;2.03;;;;;;;-141.23;100.00;62281.09;5043632;28;20100;-72
2022/10/09 10:47:55;;;;;;;9.27;2.50;;;;;;;-141.23;100.00;62281.09;5080147;28;20078;-72
2022/10/09 10:50:22;;;;;;;8.07;2.70;;;;;;;-141.23;100.00;62281.09;5061043;28;20097;-73
2022/10/09 10:53:20;;;;;;;6.22;2.50;;;;;;;-141.23;100.00;62281.09;5046154;28;20039;-73
2022/10/09 10:55:57;;;;;;;4.65;1.60;;;;;;;-141.23;100.00;62281.09;5095364;28;20046;-72
2022/10/09 10:58:27;;;;;;;4.20;1.60;;;;;;;-141.23;100.00;62281.09;5080356;28;20124;-73
2022/10/09 11:01:19;;;;;;;2.95;1.40;;;;;;;-141.23;100.00;62281.09;5097125;28;20059;-72
2022/10/09 11:04:09;;;;;;;3.25;1.70;;;;;;;-141.23;100.00;62281.09;5077361;28;20092;-73
2022/10/09 11:07:03;;;;;;;3.43;1.60;;;;;;;-141.23;100.00;62281.09;5054454;28;20127;-76
2022/10/09 11:10:08;;;;;;;4.22;1.70;;;;;;;-141.23;100.00;62281.09;5072983;28;20059;-76
2022/10/09 11:12:57;;;;;;;5.93;2.03;;;;;;;-141.23;100.00;62281.09;5049304;28;20099;-76
2022/10/09 11:15:44;;;;;;;4.75;1.60;;;;;;;-141.23;100.00;62281.09;5045637;28;20044;-75
2022/10/09 11:18:35;;;;;;;3.25;1.55;;;;;;;-141.23;100.00;62281.09;5057125;28;20143;-74